Time;durP1;ratioP1;P1;durP2;ratioP2;P2;SDS_P1;SDS_P2;PMS_P1;PMS_P2;Temp;Humidity;BMP_temperature;BMP_pressure;BME280_temperature;BME280_humidity;BME280_pressure;Samples;Min_cycle;Max_cycle;Signal;HPM_P1;HPM_P2
2023/07/10 00:01:18;;;;;;;7.00;3.05;;;25.20;55.20;;;;;;5003732;28;20057;-68
2023/07/10 00:04:19;;;;;;;6.25;3.40;;;25.20;55.00;;;;;;5005382;28;20518;-68
2023/07/10 00:07:05;;;;;;;3.65;2.63;;;25.20;54.80;;;;;;5006435;28;20042;-67
2023/07/10 00:09:51;;;;;;;6.13;3.53;;;25.20;54.60;;;;;;4995017;28;20511;-68
2023/07/10 00:12:38;;;;;;;7.93;2.95;;;25.20;54.70;;;;;;4992761;28;20081;-69
2023/07/10 00:15:24;;;;;;;5.70;3.53;;;25.20;54.70;;;;;;4996407;28;20061;-69
2023/07/10 00:18:16;;;;;;;7.43;3.22;;;25.20;54.80;;;;;;4994919;28;20043;-69
2023/07/10 00:21:02;;;;;;;4.07;2.60;;;25.10;54.70;;;;;;5001546;28;20403;-69
2023/07/10 00:23:48;;;;;;;4.32;3.03;;;25.20;54.80;;;;;;5012792;28;20411;-69
2023/07/10 00:26:37;;;;;;;3.55;2.42;;;25.20;54.90;;;;;;5004070;28;20479;-68
2023/07/10 00:29:31;;;;;;;4.07;2.75;;;25.20;54.90;;;;;;5009285;28;20502;-69
2023/07/10 00:32:17;;;;;;;4.13;2.83;;;25.10;55.00;;;;;;4992586;28;20495;-69
2023/07/10 00:35:03;;;;;;;5.22;3.22;;;25.10;55.10;;;;;;5004317;28;20123;-69
2023/07/10 00:38:02;;;;;;;4.68;3.13;;;25.10;55.20;;;;;;5011465;28;20483;-69
2023/07/10 00:40:49;;;;;;;4.82;3.15;;;25.10;55.70;;;;;;5007422;28;20045;-69
2023/07/10 00:43:39;;;;;;;5.20;3.28;;;25.10;55.30;;;;;;5000423;28;20483;-69
2023/07/10 00:46:44;;;;;;;7.22;3.03;;;25.10;55.50;;;;;;5005252;28;20040;-69
2023/07/10 00:49:50;;;;;;;5.75;3.15;;;25.10;55.70;;;;;;5008822;28;20036;-68
2023/07/10 00:52:41;;;;;;;4.55;3.10;;;25.10;55.50;;;;;;5028732;28;20084;-68
2023/07/10 00:55:34;;;;;;;4.15;2.90;;;25.10;55.50;;;;;;5016300;28;20411;-68
2023/07/10 00:58:41;;;;;;;5.53;3.28;;;25.10;56.40;;;;;;4999383;28;20030;-68
2023/07/10 01:01:29;;;;;;;4.20;2.85;;;25.10;55.90;;;;;;5003808;28;20042;-69
2023/07/10 01:04:16;;;;;;;4.80;2.70;;;25.20;55.80;;;;;;4992206;28;20386;-68
2023/07/10 01:07:02;;;;;;;5.93;3.45;;;25.10;56.40;;;;;;5018284;28;20040;-68
2023/07/10 01:09:59;;;;;;;4.15;2.75;;;25.10;55.80;;;;;;4992723;28;20072;-69
2023/07/10 01:12:45;;;;;;;5.35;3.13;;;25.10;55.90;;;;;;4990061;28;20138;-68
2023/07/10 01:15:31;;;;;;;4.35;2.75;;;25.10;55.70;;;;;;4997055;28;20049;-69
2023/07/10 01:18:19;;;;;;;3.33;2.50;;;25.10;55.50;;;;;;5006639;28;20044;-69
2023/07/10 01:21:09;;;;;;;6.10;3.00;;;25.20;55.30;;;;;;5006300;28;20119;-69
2023/07/10 01:23:55;;;;;;;4.85;2.95;;;25.10;55.10;;;;;;4992051;28;20034;-70
2023/07/10 01:26:41;;;;;;;5.20;3.25;;;25.20;55.40;;;;;;4990635;28;20042;-69
2023/07/10 01:29:33;;;;;;;5.88;2.83;;;25.20;55.60;;;;;;5002606;28;20113;-69
2023/07/10 01:32:21;;;;;;;4.80;3.03;;;25.20;55.90;;;;;;4999052;28;20478;-68
2023/07/10 01:35:10;;;;;;;6.15;3.03;;;25.10;55.90;;;;;;5009570;28;20042;-68
2023/07/10 01:37:56;;;;;;;5.35;3.35;;;25.10;56.00;;;;;;4991341;28;20506;-70
2023/07/10 01:40:48;;;;;;;5.60;3.05;;;25.10;56.00;;;;;;5003452;28;20084;-69
2023/07/10 01:43:34;;;;;;;4.95;3.03;;;25.10;56.20;;;;;;5010381;28;20389;-69
2023/07/10 01:46:26;;;;;;;4.13;3.15;;;25.10;56.30;;;;;;5004863;28;20038;-70
2023/07/10 01:49:12;;;;;;;6.95;3.13;;;25.10;56.50;;;;;;4991210;28;20038;-69
2023/07/10 01:52:02;;;;;;;4.68;3.40;;;25.10;56.60;;;;;;5010022;28;20034;-70
2023/07/10 01:54:48;;;;;;;6.43;3.20;;;25.10;56.90;;;;;;4992337;28;20045;-69
2023/07/10 01:57:34;;;;;;;5.63;3.40;;;25.10;57.70;;;;;;5004970;28;20037;-69
2023/07/10 02:00:20;;;;;;;5.28;3.35;;;25.10;57.90;;;;;;5000855;28;20053;-62
2023/07/10 02:03:06;;;;;;;8.10;3.45;;;25.10;57.80;;;;;;5001884;28;20399;-61
2023/07/10 02:05:52;;;;;;;10.27;3.95;;;25.00;58.00;;;;;;4991492;28;20077;-64
2023/07/10 02:08:37;;;;;;;7.85;3.10;;;25.10;58.10;;;;;;5005390;28;20479;-61
2023/07/10 02:11:23;;;;;;;5.28;3.55;;;25.00;58.70;;;;;;4999554;28;20050;-62
2023/07/10 02:14:09;;;;;;;5.60;3.50;;;25.00;58.90;;;;;;5018542;28;20030;-61
2023/07/10 02:16:55;;;;;;;5.45;3.05;;;24.90;58.80;;;;;;4989759;28;20038;-62
2023/07/10 02:19:41;;;;;;;6.60;3.58;;;24.90;58.90;;;;;;4993365;28;20065;-61
2023/07/10 02:22:27;;;;;;;4.07;3.05;;;24.90;59.10;;;;;;5009114;28;20229;-61
2023/07/10 02:25:13;;;;;;;5.95;3.92;;;24.80;59.10;;;;;;5008203;28;20048;-63
2023/07/10 02:27:59;;;;;;;6.80;3.15;;;24.80;59.00;;;;;;4994522;28;20048;-62
2023/07/10 02:30:46;;;;;;;4.78;3.25;;;24.70;59.00;;;;;;5008545;28;20057;-62
2023/07/10 02:33:32;;;;;;;4.68;3.42;;;24.70;59.20;;;;;;5018594;28;20042;-64
2023/07/10 02:36:20;;;;;;;5.07;3.00;;;24.70;58.80;;;;;;4996471;28;20129;-64
2023/07/10 02:39:06;;;;;;;4.85;2.75;;;24.60;58.50;;;;;;4990131;28;20034;-62
2023/07/10 02:41:52;;;;;;;5.93;3.42;;;24.60;58.60;;;;;;5012866;28;20049;-63
2023/07/10 02:44:38;;;;;;;6.75;3.95;;;24.60;58.70;;;;;;4991054;28;20065;-64
2023/07/10 02:47:24;;;;;;;8.48;3.40;;;24.50;58.80;;;;;;4994352;28;20045;-63
2023/07/10 02:50:10;;;;;;;7.45;2.88;;;24.60;58.70;;;;;;4991056;28;20034;-62
2023/07/10 02:52:56;;;;;;;5.22;2.88;;;24.50;58.80;;;;;;4991918;28;20436;-63
2023/07/10 02:55:43;;;;;;;5.38;3.00;;;24.50;58.80;;;;;;5010689;28;20032;-62
2023/07/10 02:58:29;;;;;;;4.25;3.05;;;24.40;58.90;;;;;;5019111;28;20034;-63
2023/07/10 03:01:15;;;;;;;6.82;2.95;;;24.40;59.00;;;;;;5002271;28;20135;-63
2023/07/10 03:04:01;;;;;;;5.57;3.35;;;24.30;59.10;;;;;;4993720;28;20041;-62
2023/07/10 03:06:50;;;;;;;4.38;2.78;;;24.30;59.40;;;;;;5000205;28;20522;-62
2023/07/10 03:09:36;;;;;;;5.57;3.38;;;24.20;59.50;;;;;;5002463;28;20564;-62
2023/07/10 03:12:23;;;;;;;4.65;3.22;;;24.20;59.70;;;;;;5007356;28;20046;-62
2023/07/10 03:15:09;;;;;;;5.32;3.25;;;24.10;59.90;;;;;;5003487;28;20108;-62
2023/07/10 03:17:55;;;;;;;6.68;3.50;;;24.00;60.00;;;;;;5011168;28;20062;-63
2023/07/10 03:20:41;;;;;;;6.13;3.28;;;24.00;60.20;;;;;;5011043;28;20046;-62
2023/07/10 03:23:27;;;;;;;4.60;3.05;;;24.00;60.30;;;;;;5011732;28;20034;-63
2023/07/10 03:26:13;;;;;;;7.30;3.92;;;24.00;60.50;;;;;;5011406;28;20060;-63
2023/07/10 03:29:13;;;;;;;3.72;2.67;;;23.90;60.60;;;;;;5011148;28;20072;-63
2023/07/10 03:31:59;;;;;;;6.20;3.38;;;24.00;61.10;;;;;;4993662;28;20038;-63
2023/07/10 03:34:45;;;;;;;5.57;3.17;;;23.90;61.10;;;;;;5004848;28;20101;-63
2023/07/10 03:37:31;;;;;;;5.13;3.13;;;23.90;61.60;;;;;;4992215;28;20038;-62
2023/07/10 03:40:19;;;;;;;6.75;3.65;;;23.90;62.00;;;;;;5001704;28;20061;-63
2023/07/10 03:43:05;;;;;;;5.18;2.80;;;23.90;62.30;;;;;;4995877;28;20053;-62
2023/07/10 03:45:52;;;;;;;6.75;3.03;;;23.90;62.20;;;;;;4992096;28;20044;-63
2023/07/10 03:48:38;;;;;;;4.00;2.53;;;23.90;62.50;;;;;;4992167;28;20062;-65
2023/07/10 03:51:24;;;;;;;4.30;2.72;;;23.80;62.70;;;;;;5006913;28;20061;-64
2023/07/10 03:54:10;;;;;;;5.72;3.05;;;23.80;62.70;;;;;;4999205;28;20061;-72
2023/07/10 03:56:56;;;;;;;5.35;3.15;;;23.80;63.00;;;;;;5008281;28;20042;-71
2023/07/10 03:59:42;;;;;;;5.57;3.08;;;23.80;63.00;;;;;;4996114;28;20129;-78
2023/07/10 04:02:28;;;;;;;5.07;3.00;;;23.70;63.10;;;;;;5010375;28;20091;-73
2023/07/10 04:05:14;;;;;;;4.40;2.90;;;23.70;63.40;;;;;;5005312;28;20029;-73
2023/07/10 04:08:00;;;;;;;5.00;3.08;;;23.70;63.40;;;;;;5011346;28;20088;-77
2023/07/10 04:10:53;;;;;;;7.22;3.50;;;23.70;63.50;;;;;;5013193;28;20026;-73
2023/07/10 04:13:39;;;;;;;5.05;3.10;;;23.70;63.60;;;;;;5012727;28;20050;-74
2023/07/10 04:16:27;;;;;;;4.95;2.60;;;23.70;63.80;;;;;;5005502;28;20479;-73
2023/07/10 04:19:13;;;;;;;5.50;3.42;;;23.60;63.80;;;;;;4997577;28;20387;-72
2023/07/10 04:21:59;;;;;;;4.72;2.90;;;23.60;63.90;;;;;;5001076;28;20063;-72
2023/07/10 04:24:45;;;;;;;5.63;3.15;;;23.60;64.40;;;;;;5006717;28;20075;-72
2023/07/10 04:27:32;;;;;;;6.10;3.03;;;23.60;64.40;;;;;;4992348;28;20030;-72
2023/07/10 04:30:18;;;;;;;4.90;2.60;;;23.60;64.60;;;;;;5006150;28;20132;-72
2023/07/10 04:33:08;;;;;;;7.47;3.08;;;23.60;64.70;;;;;;4996279;28;20062;-72
2023/07/10 04:35:56;;;;;;;4.85;2.92;;;23.60;64.50;;;;;;5005697;28;20029;-73
2023/07/10 04:38:42;;;;;;;4.93;3.05;;;23.60;64.40;;;;;;5011904;28;20516;-72
2023/07/10 04:41:28;;;;;;;5.72;3.38;;;23.60;64.20;;;;;;5001862;28;20053;-72
2023/07/10 04:44:14;;;;;;;5.78;3.10;;;23.60;64.20;;;;;;5009731;28;20033;-72
2023/07/10 04:47:00;;;;;;;4.35;2.83;;;23.70;64.20;;;;;;4998626;28;20049;-72
2023/07/10 04:49:46;;;;;;;5.55;3.13;;;23.60;64.40;;;;;;5004555;28;20034;-73
2023/07/10 04:52:32;;;;;;;6.78;3.42;;;23.70;64.40;;;;;;5004557;28;20029;-72
2023/07/10 04:55:18;;;;;;;8.38;3.30;;;23.70;64.50;;;;;;5001892;28;20026;-71
2023/07/10 04:58:04;;;;;;;5.43;3.28;;;23.80;64.50;;;;;;4994344;28;20033;-71
2023/07/10 05:00:57;;;;;;;5.72;3.28;;;23.90;64.20;;;;;;5005456;28;20077;-70
2023/07/10 05:03:43;;;;;;;5.10;3.08;;;23.90;64.50;;;;;;4991148;28;20447;-70
2023/07/10 05:06:29;;;;;;;5.25;2.92;;;24.00;64.90;;;;;;5016123;28;20479;-70
2023/07/10 05:09:15;;;;;;;4.85;2.75;;;24.20;65.50;;;;;;5004909;28;20026;-69
2023/07/10 05:12:01;;;;;;;3.70;2.83;;;24.20;65.50;;;;;;4990829;28;20108;-72
2023/07/10 05:14:47;;;;;;;6.97;3.35;;;24.20;65.60;;;;;;4996433;28;20029;-72
2023/07/10 05:17:33;;;;;;;5.30;3.22;;;24.30;64.50;;;;;;4992601;28;20041;-72
2023/07/10 05:20:19;;;;;;;4.65;3.30;;;24.30;64.50;;;;;;5000816;28;20088;-71
2023/07/10 05:23:06;;;;;;;8.05;3.08;;;24.20;64.10;;;;;;4998750;28;20054;-73
2023/07/10 05:26:05;;;;;;;5.97;3.13;;;24.20;64.40;;;;;;5004476;28;20507;-75
2023/07/10 05:28:51;;;;;;;6.50;3.53;;;24.20;65.20;;;;;;5011696;28;20026;-75
2023/07/10 05:31:36;;;;;;;6.35;3.78;;;24.20;65.40;;;;;;4991832;28;20050;-74
2023/07/10 05:34:23;;;;;;;7.25;3.10;;;24.20;65.80;;;;;;4993255;28;20029;-72
2023/07/10 05:37:10;;;;;;;5.05;3.40;;;24.20;66.00;;;;;;4991182;28;20038;-74
2023/07/10 05:39:56;;;;;;;4.85;2.95;;;24.10;65.90;;;;;;4990866;28;20423;-72
2023/07/10 05:42:42;;;;;;;6.07;3.15;;;24.10;66.80;;;;;;5000030;28;20461;-73
2023/07/10 05:45:28;;;;;;;5.15;3.00;;;24.10;66.80;;;;;;5006101;28;20387;-76
2023/07/10 05:48:15;;;;;;;6.10;3.88;;;24.10;67.30;;;;;;4990176;28;20053;-74
2023/07/10 05:51:01;;;;;;;7.25;3.65;;;24.00;67.90;;;;;;4993685;28;20049;-73
2023/07/10 05:53:47;;;;;;;7.35;3.50;;;23.90;68.50;;;;;;4989865;28;20026;-75
2023/07/10 05:56:33;;;;;;;5.60;4.10;;;23.90;69.50;;;;;;5008976;28;20434;-72
2023/07/10 05:59:19;;;;;;;6.05;3.85;;;23.80;70.30;;;;;;5008259;28;20498;-73
2023/07/10 06:02:06;;;;;;;6.70;3.63;;;23.70;71.20;;;;;;4993238;28;20484;-73
2023/07/10 06:04:51;;;;;;;5.30;3.35;;;23.60;72.70;;;;;;4999714;28;20031;-73
2023/07/10 06:07:37;;;;;;;8.00;4.53;;;23.50;73.50;;;;;;4993009;28;20395;-73
2023/07/10 06:10:23;;;;;;;6.75;3.78;;;23.40;74.90;;;;;;4998053;28;20069;-73
2023/07/10 06:13:09;;;;;;;8.52;4.80;;;23.40;76.50;;;;;;5019787;28;20496;-74
2023/07/10 06:15:57;;;;;;;10.80;4.65;;;23.20;77.40;;;;;;4992142;28;20041;-73
2023/07/10 06:18:43;;;;;;;7.72;4.82;;;22.90;78.10;;;;;;4989494;28;20507;-73
2023/07/10 06:21:29;;;;;;;10.13;4.03;;;22.60;78.80;;;;;;4990541;28;20042;-73
2023/07/10 06:24:15;;;;;;;8.88;4.93;;;22.40;79.30;;;;;;5002283;28;20041;-72
2023/07/10 06:27:02;;;;;;;9.75;4.82;;;22.40;79.90;;;;;;5016132;28;20110;-72
2023/07/10 06:29:50;;;;;;;9.00;4.22;;;22.30;80.60;;;;;;4996537;28;20030;-72
2023/07/10 06:32:36;;;;;;;9.45;4.68;;;22.30;81.00;;;;;;4994719;28;20104;-71
2023/07/10 06:35:22;;;;;;;8.48;4.55;;;22.20;81.30;;;;;;5005273;28;20041;-72
2023/07/10 06:38:08;;;;;;;7.20;4.55;;;22.30;82.40;;;;;;5013222;28;20041;-72
2023/07/10 06:40:54;;;;;;;9.63;4.03;;;22.30;83.20;;;;;;5013632;28;20038;-70
2023/07/10 06:43:40;;;;;;;6.68;4.40;;;22.30;83.70;;;;;;4990136;28;20400;-70
2023/07/10 06:46:26;;;;;;;9.32;4.35;;;22.40;83.80;;;;;;5004489;28;20038;-72
2023/07/10 06:49:12;;;;;;;6.03;4.22;;;22.40;85.20;;;;;;4997227;28;20030;-72
2023/07/10 06:51:58;;;;;;;8.90;4.68;;;22.50;85.20;;;;;;4993675;28;20475;-71
2023/07/10 06:54:44;;;;;;;7.47;4.57;;;22.50;85.60;;;;;;4995615;28;20165;-72
2023/07/10 06:57:30;;;;;;;7.72;4.65;;;22.60;86.00;;;;;;5004702;28;20432;-72
2023/07/10 07:00:17;;;;;;;10.02;5.03;;;22.70;86.30;;;;;;5002270;28;20421;-71
2023/07/10 07:03:03;;;;;;;8.00;4.35;;;22.70;86.10;;;;;;4994083;28;20030;-72
2023/07/10 07:05:50;;;;;;;9.93;5.03;;;22.70;85.80;;;;;;5006100;28;20088;-74
2023/07/10 07:08:36;;;;;;;10.05;5.10;;;22.70;85.40;;;;;;4991856;28;20447;-72
2023/07/10 07:11:22;;;;;;;6.90;4.72;;;22.80;85.60;;;;;;5004099;28;20109;-72
2023/07/10 07:14:08;;;;;;;6.45;4.20;;;22.90;85.20;;;;;;5002838;28;20117;-72
2023/07/10 07:16:54;;;;;;;9.05;4.47;;;23.00;85.50;;;;;;5022154;28;20480;-72
2023/07/10 07:19:42;;;;;;;8.30;4.25;;;23.20;86.80;;;;;;4994593;28;20561;-72
2023/07/10 07:22:28;;;;;;;11.07;4.47;;;23.20;86.90;;;;;;4994652;28;20085;-72
2023/07/10 07:25:14;;;;;;;8.10;4.25;;;23.30;85.90;;;;;;5004762;28;20033;-72
2023/07/10 07:28:00;;;;;;;6.97;3.92;;;23.40;86.00;;;;;;5009443;28;20022;-72
2023/07/10 07:30:48;;;;;;;8.13;4.93;;;23.50;85.90;;;;;;5001657;28;20037;-72
2023/07/10 07:33:34;;;;;;;7.05;4.82;;;23.50;85.20;;;;;;4996708;28;20034;-72
2023/07/10 07:36:20;;;;;;;7.75;4.75;;;23.50;84.90;;;;;;4993937;28;20502;-71
2023/07/10 07:39:07;;;;;;;8.07;4.30;;;23.60;84.30;;;;;;4994639;28;20385;-71
2023/07/10 07:41:52;;;;;;;7.13;4.15;;;23.60;83.80;;;;;;4994644;28;20043;-71
2023/07/10 07:44:38;;;;;;;7.95;4.55;;;23.60;84.20;;;;;;4999306;28;20029;-71
2023/07/10 07:47:26;;;;;;;5.70;3.95;;;23.60;84.00;;;;;;5004178;28;20116;-72
2023/07/10 07:50:12;;;;;;;6.47;4.88;;;23.60;83.30;;;;;;4997334;28;20073;-73
2023/07/10 07:52:58;;;;;;;6.47;3.85;;;23.60;83.90;;;;;;4999925;28;20458;-72
2023/07/10 07:55:44;;;;;;;8.55;4.38;;;23.70;83.40;;;;;;4996383;28;20086;-74
2023/07/10 07:58:30;;;;;;;6.00;4.03;;;23.80;82.80;;;;;;4990357;28;20040;-73
2023/07/10 08:01:17;;;;;;;8.50;4.43;;;23.90;82.00;;;;;;4997330;28;20108;-73
2023/07/10 08:04:03;;;;;;;7.13;4.43;;;24.00;81.70;;;;;;5002474;28;20029;-73
2023/07/10 08:06:49;;;;;;;6.55;4.05;;;24.00;81.40;;;;;;4999166;28;20072;-73
2023/07/10 08:09:35;;;;;;;8.02;3.88;;;24.20;82.00;;;;;;5012514;28;20129;-72
2023/07/10 08:12:21;;;;;;;8.18;4.40;;;24.30;81.30;;;;;;4996694;28;20066;-74
2023/07/10 08:15:07;;;;;;;5.05;3.80;;;24.40;80.80;;;;;;4999650;28;20080;-74
2023/07/10 08:17:53;;;;;;;7.40;4.57;;;24.50;81.20;;;;;;4996444;28;20395;-74
2023/07/10 08:20:40;;;;;;;5.85;3.88;;;24.70;81.30;;;;;;4999283;28;20046;-75
2023/07/10 08:23:26;;;;;;;17.13;4.90;;;24.80;80.50;;;;;;5005581;28;20041;-74
2023/07/10 08:26:12;;;;;;;6.10;4.20;;;24.90;80.30;;;;;;5008389;28;20029;-74
2023/07/10 08:29:31;;;;;;;7.10;4.13;;;25.10;80.70;;;;;;5006821;28;20061;-74
2023/07/10 08:32:16;;;;;;;7.57;4.38;;;25.20;80.50;;;;;;5005256;28;20038;-73
2023/07/10 08:35:03;;;;;;;12.88;4.88;;;25.30;79.90;;;;;;5008443;28;20092;-74
2023/07/10 08:37:50;;;;;;;6.32;4.43;;;25.40;79.70;;;;;;4993982;28;20038;-73
2023/07/10 08:40:40;;;;;;;8.80;5.18;;;25.60;79.80;;;;;;5002900;28;20530;-73
2023/07/10 08:43:35;;;;;;;9.35;4.15;;;25.70;79.10;;;;;;4989111;28;22164;-73
2023/07/10 08:46:24;;;;;;;6.10;4.20;;;25.80;78.70;;;;;;4998313;28;20038;-74
2023/07/10 08:49:16;;;;;;;11.38;5.22;;;26.00;79.70;;;;;;4998770;28;20455;-74
2023/07/10 08:52:15;;;;;;;6.65;4.43;;;26.10;78.70;;;;;;4994773;28;20033;-74
2023/07/10 08:55:01;;;;;;;13.00;3.78;;;26.30;78.70;;;;;;5003440;28;20042;-75
2023/07/10 08:58:02;;;;;;;6.60;4.15;;;26.40;79.40;;;;;;5007984;28;20053;-74
2023/07/10 09:00:51;;;;;;;7.93;5.05;;;26.50;78.50;;;;;;5000372;28;20121;-73
2023/07/10 09:03:39;;;;;;;7.70;4.93;;;26.70;78.20;;;;;;5002015;28;20112;-74
2023/07/10 09:06:43;;;;;;;8.32;4.50;;;26.80;77.60;;;;;;5003047;28;20037;-73
2023/07/10 09:09:40;;;;;;;9.98;4.97;;;26.90;77.20;;;;;;5013860;28;20520;-74
2023/07/10 09:12:47;;;;;;;8.80;5.57;;;27.00;76.90;;;;;;4995746;28;20136;-74
2023/07/10 09:15:36;;;;;;;8.65;5.15;;;27.10;77.00;;;;;;5000006;28;20402;-74
2023/07/10 09:18:37;;;;;;;5.25;3.95;;;27.20;77.50;;;;;;4997480;28;20447;-74
2023/07/10 09:21:29;;;;;;;9.30;4.57;;;27.40;77.80;;;;;;5002838;28;20035;-72
2023/07/10 09:24:18;;;;;;;7.20;4.60;;;27.40;76.70;;;;;;4993599;28;20054;-73
2023/07/10 09:27:13;;;;;;;8.18;4.80;;;27.50;76.20;;;;;;5001980;28;20049;-74
2023/07/10 09:29:59;;;;;;;7.88;5.25;;;27.70;74.80;;;;;;4998724;28;20033;-73
2023/07/10 09:32:45;;;;;;;7.13;5.10;;;27.80;75.40;;;;;;5008770;28;20395;-73
2023/07/10 09:35:33;;;;;;;9.25;4.22;;;27.90;74.20;;;;;;4990644;28;20019;-71
2023/07/10 09:38:19;;;;;;;13.63;5.95;;;28.00;73.90;;;;;;5000197;28;20068;-74
2023/07/10 09:41:18;;;;;;;10.02;4.78;;;28.10;74.10;;;;;;4990656;28;20042;-74
2023/07/10 09:44:18;;;;;;;13.15;4.72;;;28.30;73.70;;;;;;5025617;28;20124;-74
2023/07/10 09:47:10;;;;;;;6.43;4.22;;;28.40;73.20;;;;;;5012532;28;20073;-74
2023/07/10 09:50:01;;;;;;;5.85;4.18;;;28.50;72.30;;;;;;5008009;28;20038;-73
2023/07/10 09:52:55;;;;;;;7.65;4.90;;;28.50;71.80;;;;;;4991871;28;20149;-66
2023/07/10 09:55:44;;;;;;;6.93;4.95;;;28.60;71.30;;;;;;4991384;28;20030;-65
2023/07/10 09:58:30;;;;;;;7.50;4.70;;;28.80;71.20;;;;;;5005740;28;20368;-65
2023/07/10 10:01:17;;;;;;;5.97;3.95;;;28.80;71.00;;;;;;5001923;28;20077;-66
2023/07/10 10:04:03;;;;;;;5.53;3.85;;;28.90;71.30;;;;;;5013691;28;20096;-65
2023/07/10 10:07:00;;;;;;;7.20;4.40;;;28.90;70.70;;;;;;4991667;28;20100;-66
2023/07/10 10:09:46;;;;;;;9.15;4.47;;;29.00;70.80;;;;;;4998833;28;20034;-65
2023/07/10 10:12:35;;;;;;;5.75;4.45;;;29.00;70.20;;;;;;4990303;28;20050;-65
2023/07/10 10:15:38;;;;;;;8.50;5.00;;;29.10;70.80;;;;;;5008725;28;20061;-65
2023/07/10 10:18:34;;;;;;;6.82;4.15;;;29.10;70.50;;;;;;4992956;28;20045;-66
2023/07/10 10:21:20;;;;;;;5.90;4.72;;;29.20;70.10;;;;;;4997812;28;20046;-66
2023/07/10 10:24:10;;;;;;;6.88;5.18;;;29.30;70.00;;;;;;4996214;28;20034;-66
2023/07/10 10:27:31;;;;;;;6.03;4.70;;;29.40;69.60;;;;;;5003917;28;20403;-66
2023/07/10 10:30:28;;;;;;;8.77;4.82;;;29.50;70.00;;;;;;5019022;28;20426;-65
2023/07/10 10:33:54;;;;;;;6.13;4.63;;;29.70;69.00;;;;;;4990603;28;20027;-66
2023/07/10 10:36:46;;;;;;;8.95;5.20;;;29.80;69.40;;;;;;4988939;28;20047;-67
2023/07/10 10:39:44;;;;;;;6.10;4.10;;;29.90;69.40;;;;;;4999229;28;20038;-66
2023/07/10 10:42:41;;;;;;;6.20;4.28;;;30.00;68.40;;;;;;4998619;28;20691;-66
2023/07/10 10:45:37;;;;;;;6.70;5.18;;;30.00;68.00;;;;;;4996507;28;21768;-67
2023/07/10 10:48:33;;;;;;;6.22;4.88;;;30.10;67.90;;;;;;5016114;28;20034;-67
2023/07/10 10:51:38;;;;;;;5.38;4.15;;;30.20;68.10;;;;;;5004699;28;20032;-67
2023/07/10 10:54:56;;;;;;;7.60;4.13;;;30.30;68.20;;;;;;5005547;28;20506;-66
2023/07/10 10:57:48;;;;;;;5.65;3.90;;;30.30;67.80;;;;;;4983729;28;20077;-67
2023/07/10 11:00:51;;;;;;;6.43;4.13;;;30.30;67.90;;;;;;4996033;28;20425;-67
2023/07/10 11:03:46;;;;;;;10.80;4.47;;;30.30;67.40;;;;;;4992487;28;20033;-66
2023/07/10 11:06:35;;;;;;;;;;;30.40;67.50;;;;;;4991578;28;20033;-67
2023/07/10 11:09:29;;;;;;;6.78;4.25;;;30.40;67.70;;;;;;5001982;28;19917;-65
2023/07/10 11:12:24;;;;;;;7.95;4.18;;;30.40;67.30;;;;;;5006373;28;20181;-66
2023/07/10 11:15:21;;;;;;;8.15;4.18;;;30.50;67.70;;;;;;5008861;28;20117;-67
2023/07/10 11:18:12;;;;;;;9.80;5.10;;;30.50;67.90;;;;;;4992923;28;20387;-66
2023/07/10 11:21:01;;;;;;;6.63;3.92;;;30.50;67.50;;;;;;4993025;28;20487;-66
2023/07/10 11:23:51;;;;;;;8.52;4.80;;;30.60;67.00;;;;;;5002002;28;20054;-66
2023/07/10 11:26:37;;;;;;;5.88;4.43;;;30.50;66.40;;;;;;5008626;28;20511;-67
2023/07/10 11:29:30;;;;;;;6.35;4.22;;;30.50;66.70;;;;;;5002062;28;20096;-66
2023/07/10 11:32:18;;;;;;;10.57;5.13;;;30.60;66.60;;;;;;4999801;28;20045;-67
2023/07/10 11:35:16;;;;;;;8.25;4.43;;;30.60;66.20;;;;;;4994420;28;20042;-66
2023/07/10 11:38:02;;;;;;;11.27;4.47;;;30.70;65.80;;;;;;5024635;28;20044;-67
2023/07/10 11:40:50;;;;;;;8.68;4.38;;;30.70;65.20;;;;;;4993432;28;20426;-66
2023/07/10 11:43:39;;;;;;;6.85;4.68;;;30.80;64.70;;;;;;5001429;28;20038;-68
2023/07/10 11:46:27;;;;;;;8.25;5.40;;;30.90;64.90;;;;;;5004644;28;20037;-68
2023/07/10 11:49:16;;;;;;;8.35;5.13;;;31.00;65.10;;;;;;5001468;28;20038;-67
2023/07/10 11:52:14;;;;;;;13.57;5.47;;;31.00;65.20;;;;;;4999382;28;20033;-68
2023/07/10 11:55:08;;;;;;;6.65;5.40;;;31.00;65.30;;;;;;5008365;28;20087;-73
2023/07/10 11:58:24;;;;;;;8.55;6.35;;;31.00;65.30;;;;;;5010289;28;20037;-72
2023/07/10 12:01:14;;;;;;;8.55;5.75;;;30.90;65.80;;;;;;4998524;28;20046;-70
2023/07/10 12:04:00;;;;;;;9.57;6.68;;;30.90;66.30;;;;;;5000964;28;20041;-69
2023/07/10 12:06:46;;;;;;;12.05;6.35;;;30.80;66.70;;;;;;4992904;28;20033;-70
2023/07/10 12:09:32;;;;;;;10.07;6.10;;;30.80;66.50;;;;;;4997771;28;20045;-69
2023/07/10 12:12:18;;;;;;;9.18;5.53;;;30.80;66.10;;;;;;5004317;28;20073;-69
2023/07/10 12:15:04;;;;;;;8.00;5.50;;;30.80;65.90;;;;;;4997614;28;20045;-69
2023/07/10 12:17:52;;;;;;;7.82;5.47;;;30.60;65.70;;;;;;4995832;28;20061;-69
2023/07/10 12:20:38;;;;;;;8.32;5.25;;;30.60;66.20;;;;;;5004254;28;20041;-69
2023/07/10 12:23:24;;;;;;;7.43;5.20;;;30.60;66.40;;;;;;4997188;28;20034;-69
2023/07/10 12:26:16;;;;;;;7.55;5.03;;;30.60;66.60;;;;;;4992901;28;20038;-70
2023/07/10 12:29:02;;;;;;;6.55;5.03;;;30.70;66.70;;;;;;5004031;28;20100;-69
2023/07/10 12:31:48;;;;;;;7.65;4.78;;;30.80;66.50;;;;;;4990529;28;20041;-68
2023/07/10 12:34:35;;;;;;;10.73;5.65;;;30.80;66.30;;;;;;4998297;28;20337;-71
2023/07/10 12:37:22;;;;;;;5.88;4.50;;;30.80;66.40;;;;;;5008077;28;20037;-69
2023/07/10 12:40:14;;;;;;;10.00;5.22;;;30.80;66.80;;;;;;5004322;28;20044;-70
2023/07/10 12:43:20;;;;;;;10.13;6.03;;;30.90;67.40;;;;;;4995499;28;20034;-70
2023/07/10 12:46:17;;;;;;;8.43;5.47;;;30.90;67.00;;;;;;4996652;28;20089;-70
2023/07/10 12:49:16;;;;;;;8.15;5.05;;;31.00;67.30;;;;;;4995527;28;20680;-70
2023/07/10 12:52:06;;;;;;;7.38;5.70;;;31.00;67.50;;;;;;5009009;28;20107;-70
2023/07/10 12:54:54;;;;;;;6.72;5.18;;;31.10;67.60;;;;;;4997851;28;20065;-71
2023/07/10 12:57:40;;;;;;;7.85;5.15;;;31.10;67.80;;;;;;4990480;28;20096;-70
2023/07/10 13:00:45;;;;;;;8.63;5.45;;;31.30;68.20;;;;;;4996979;28;20042;-71
2023/07/10 13:03:32;;;;;;;10.20;5.45;;;31.30;68.90;;;;;;5006641;28;20030;-69
2023/07/10 13:06:18;;;;;;;5.78;4.60;;;31.10;70.00;;;;;;5000368;28;20034;-69
2023/07/10 13:09:06;;;;;;;9.20;4.82;;;30.90;70.10;;;;;;5006972;28;20072;-70
2023/07/10 13:11:52;;;;;;;6.57;4.90;;;30.90;70.30;;;;;;5008230;28;20497;-70
2023/07/10 13:14:38;;;;;;;7.53;5.13;;;30.80;70.50;;;;;;5005689;28;20152;-69
2023/07/10 13:17:27;;;;;;;5.88;4.47;;;30.70;70.90;;;;;;5002920;28;20033;-70
2023/07/10 13:20:19;;;;;;;5.68;4.30;;;30.60;71.00;;;;;;5004196;28;20096;-68
2023/07/10 13:23:05;;;;;;;6.88;5.35;;;30.50;71.40;;;;;;5001499;28;20034;-70
2023/07/10 13:25:55;;;;;;;7.18;5.05;;;30.40;71.60;;;;;;4992583;28;20045;-69
2023/07/10 13:28:41;;;;;;;7.15;5.15;;;30.30;72.00;;;;;;4993420;28;20037;-68
2023/07/10 13:31:31;;;;;;;5.22;4.18;;;30.10;72.20;;;;;;4991562;28;20026;-68
2023/07/10 13:34:16;;;;;;;6.50;5.20;;;30.20;72.40;;;;;;5004085;28;20662;-69
2023/07/10 13:37:03;;;;;;;6.90;5.07;;;30.30;72.40;;;;;;4996947;28;20076;-71
2023/07/10 13:39:51;;;;;;;8.07;5.05;;;30.30;72.30;;;;;;5002182;28;20022;-70
2023/07/10 13:42:37;;;;;;;9.60;5.32;;;30.30;72.50;;;;;;5000856;28;20037;-69
2023/07/10 13:45:23;;;;;;;9.43;5.68;;;30.40;72.70;;;;;;4999573;28;20423;-69
2023/07/10 13:48:14;;;;;;;9.43;5.30;;;30.50;72.70;;;;;;5001291;28;20042;-68
2023/07/10 13:51:00;;;;;;;7.75;5.82;;;30.50;73.10;;;;;;5002124;28;20029;-69
2023/07/10 13:53:48;;;;;;;8.05;5.82;;;30.50;72.60;;;;;;5001986;28;20046;-70
2023/07/10 13:56:41;;;;;;;7.63;5.28;;;30.40;72.50;;;;;;5002763;28;20022;-68
2023/07/10 13:59:27;;;;;;;7.53;5.32;;;30.30;72.60;;;;;;5002974;28;20030;-70
2023/07/10 14:02:30;;;;;;;9.88;5.65;;;30.20;72.70;;;;;;5000335;28;20113;-70
2023/07/10 14:05:19;;;;;;;8.32;5.22;;;30.00;72.90;;;;;;4997281;28;20038;-69
2023/07/10 14:08:20;;;;;;;7.10;5.90;;;30.00;73.00;;;;;;4999104;28;20061;-70
2023/07/10 14:11:07;;;;;;;7.60;5.35;;;29.80;73.10;;;;;;4991181;28;20117;-70
2023/07/10 14:13:53;;;;;;;13.82;5.88;;;29.60;73.40;;;;;;4991097;28;20499;-70
2023/07/10 14:16:39;;;;;;;7.60;5.40;;;29.50;73.50;;;;;;4996420;28;20037;-70
2023/07/10 14:19:25;;;;;;;8.18;5.45;;;29.40;73.60;;;;;;5002837;28;20037;-69
2023/07/10 14:22:14;;;;;;;6.70;5.57;;;29.30;74.00;;;;;;4999304;28;20045;-69
2023/07/10 14:25:00;;;;;;;8.50;5.38;;;29.20;74.00;;;;;;4999045;28;20034;-69
2023/07/10 14:27:46;;;;;;;6.97;5.63;;;29.20;74.10;;;;;;4991934;28;20411;-69
2023/07/10 14:30:32;;;;;;;10.68;5.93;;;29.20;74.20;;;;;;4993595;28;20030;-70
2023/07/10 14:33:18;;;;;;;8.45;4.90;;;29.20;74.10;;;;;;4990773;28;20042;-70
2023/07/10 14:36:18;;;;;;;6.55;4.65;;;29.20;74.00;;;;;;5006806;28;20037;-68
2023/07/10 14:39:04;;;;;;;7.07;4.85;;;29.10;73.90;;;;;;4993939;28;20045;-69